createdAt,value
2019-03-28T00:05:05.916Z,27.41
2019-03-28T00:10:14.246Z,28.02
2019-03-28T00:15:22.538Z,26.20
2019-03-28T00:20:30.778Z,30.46
2019-03-28T00:25:39.141Z,26.59
2019-03-28T00:30:47.335Z,26.10
2019-03-28T00:35:55.729Z,25.05
2019-03-28T00:41:03.864Z,27.40
2019-03-28T00:46:12.058Z,29.31
2019-03-28T00:51:20.241Z,28.59
2019-03-28T00:56:38.087Z,33.84
2019-03-28T01:01:37.843Z,28.69
2019-03-28T01:06:46.129Z,24.44
2019-03-28T01:11:54.437Z,30.48
2019-03-28T01:17:02.797Z,30.87
2019-03-28T01:22:11.082Z,24.57
2019-03-28T01:27:19.226Z,26.89
2019-03-28T01:32:28.247Z,31.50
2019-03-28T01:37:35.246Z,31.52
2019-03-28T01:42:43.490Z,30.86
2019-03-28T01:47:51.811Z,26.82
2019-03-28T01:53:00.026Z,28.26
2019-03-28T01:58:08.253Z,28.60
2019-03-28T02:03:16.510Z,27.64
2019-03-28T02:08:24.963Z,32.69
2019-03-28T02:13:32.968Z,32.90
2019-03-28T02:18:41.207Z,30.33
2019-03-28T02:23:49.657Z,29.87
2019-03-28T02:28:57.856Z,33.45
2019-03-28T02:34:06.442Z,29.09
2019-03-28T02:39:15.750Z,33.38
2019-03-28T02:44:26.925Z,30.80
2019-03-28T02:49:25.351Z,33.39
2019-03-28T02:54:33.696Z,29.08
2019-03-28T02:59:41.857Z,34.21
2019-03-28T03:04:50.025Z,32.01
2019-03-28T03:09:59.424Z,32.25
2019-03-28T03:15:07.801Z,32.95
2019-03-28T03:20:16.098Z,33.45
2019-03-28T03:25:24.599Z,29.73
2019-03-28T03:30:32.804Z,33.76
2019-03-28T03:35:41.063Z,27.06
2019-03-28T03:40:49.253Z,30.75
2019-03-28T03:45:57.551Z,32.03
2019-03-28T03:51:05.788Z,35.24
2019-03-28T03:56:14.042Z,34.01
2019-03-28T04:01:22.301Z,35.77
2019-03-28T04:06:30.493Z,36.90
2019-03-28T04:11:38.720Z,35.67
2019-03-28T04:16:47.202Z,38.37
2019-03-28T04:21:55.452Z,29.89
2019-03-28T04:27:03.710Z,37.22
2019-03-28T04:32:11.897Z,32.64
2019-03-28T04:37:20.279Z,28.66
2019-03-28T04:42:28.473Z,34.57
2019-03-28T04:47:36.609Z,38.67
2019-03-28T04:52:45.554Z,33.65
2019-03-28T04:57:53.429Z,30.42
2019-03-28T05:03:01.686Z,33.93
2019-03-28T05:08:10.009Z,34.96
2019-03-28T05:13:18.310Z,33.94
2019-03-28T05:18:26.502Z,33.55
2019-03-28T05:23:34.786Z,34.15
2019-03-28T05:28:42.970Z,32.49
2019-03-28T05:33:51.286Z,37.45
2019-03-28T05:39:01.806Z,36.64
2019-03-28T05:43:59.987Z,36.90
2019-03-28T05:49:08.375Z,36.19
2019-03-28T05:54:16.828Z,39.03
2019-03-28T05:59:25.150Z,39.12
2019-03-28T06:04:33.256Z,37.57
2019-03-28T06:09:41.582Z,40.93
2019-03-28T06:14:50.003Z,36.30
2019-03-28T06:19:58.217Z,38.53
2019-03-28T06:25:06.514Z,38.67
2019-03-28T06:30:14.839Z,36.23
2019-03-28T06:35:23.953Z,37.09
2019-03-28T06:40:32.283Z,38.45
2019-03-28T06:45:40.731Z,36.69
2019-03-28T06:50:49.018Z,34.50
2019-03-28T06:55:57.430Z,32.46
2019-03-28T07:01:05.798Z,33.39
2019-03-28T07:06:14.551Z,32.69
2019-03-28T07:11:21.981Z,30.50
2019-03-28T07:21:39.076Z,39.87
2019-03-28T07:26:47.345Z,36.06
2019-03-28T07:47:13.360Z,33.01
2019-03-28T08:28:08.030Z,31.29
2019-03-28T08:33:05.370Z,31.03
2019-03-28T08:38:13.744Z,27.66
2019-03-28T08:58:38.474Z,36.22
2019-03-28T09:03:49.712Z,36.30
2019-03-28T09:24:19.486Z,35.57
2019-03-28T09:44:52.715Z,29.76
2019-03-28T09:55:09.570Z,27.43
2019-03-28T10:05:26.281Z,28.25
2019-03-28T10:10:34.582Z,29.10
2019-03-28T10:15:43.937Z,25.16
2019-03-28T10:26:00.865Z,25.90
2019-03-28T10:31:16.357Z,26.82
2019-03-28T10:56:52.472Z,19.76
2019-03-28T11:01:59.065Z,18.43
2019-03-28T11:07:09.452Z,14.74
2019-03-28T11:12:07.720Z,14.26
2019-03-28T11:17:16.006Z,14.52
2019-03-28T11:22:24.411Z,11.45
2019-03-28T11:27:32.801Z,14.15
2019-03-28T11:32:41.405Z,14.97
2019-03-28T11:37:49.532Z,13.15
2019-03-28T11:42:58.926Z,9.03
2019-03-28T11:48:08.464Z,12.22
2019-03-28T11:53:16.775Z,12.60
2019-03-28T11:58:26.101Z,12.05
2019-03-28T12:03:34.620Z,10.62
2019-03-28T12:08:43.146Z,7.96
2019-03-28T12:13:51.697Z,11.39
2019-03-28T12:19:00.199Z,9.77
2019-03-28T12:24:09.018Z,12.52
2019-03-28T12:29:17.366Z,12.56
2019-03-28T12:34:26.152Z,11.47
2019-03-28T12:39:34.815Z,15.17
2019-03-28T12:44:55.997Z,13.43
2019-03-28T12:49:51.269Z,13.27
2019-03-28T13:00:09.566Z,13.82
2019-03-28T13:05:18.140Z,15.74
2019-03-28T13:10:27.447Z,12.89
2019-03-28T13:15:35.945Z,14.39
2019-03-28T13:20:44.447Z,13.71
2019-03-28T13:25:52.577Z,12.63
2019-03-28T13:36:09.171Z,14.40
2019-03-28T13:41:17.889Z,13.15
2019-03-28T13:46:26.202Z,10.55
2019-03-28T13:51:34.535Z,12.90
2019-03-28T13:56:43.213Z,11.55
2019-03-28T14:02:03.100Z,11.34
2019-03-28T14:06:54.749Z,14.66
2019-03-28T14:12:03.296Z,14.34
2019-03-28T14:17:03.392Z,15.20
2019-03-28T14:22:11.852Z,16.11
2019-03-28T14:27:19.995Z,14.65
2019-03-28T14:32:28.762Z,17.85
2019-03-28T14:37:36.588Z,16.87
2019-03-28T14:42:45.100Z,15.00
2019-03-28T14:47:53.590Z,13.69
2019-03-28T14:53:02.184Z,15.82
2019-03-28T14:58:10.649Z,17.52
2019-03-28T15:03:26.356Z,14.98
2019-03-28T15:08:28.690Z,14.43
2019-03-28T15:23:44.393Z,11.76
2019-03-28T15:28:52.646Z,16.27
2019-03-28T15:34:00.857Z,11.51
2019-03-28T15:39:10.003Z,9.30
2019-03-28T15:44:19.695Z,12.37
2019-03-28T15:49:19.945Z,12.77
2019-03-28T15:54:22.841Z,10.88
2019-03-28T15:59:31.070Z,13.98
2019-03-28T16:04:39.464Z,13.30
2019-03-28T16:09:48.704Z,10.90
2019-03-28T16:14:57.045Z,12.15
2019-03-28T16:20:06.083Z,9.32
2019-03-28T16:25:14.530Z,13.14
2019-03-28T16:30:23.136Z,12.59
2019-03-28T16:35:31.437Z,11.57
2019-03-28T16:40:40.043Z,12.78
2019-03-28T16:50:56.652Z,12.70
2019-03-28T16:56:04.858Z,9.99
2019-03-28T17:01:11.878Z,12.46
2019-03-28T17:06:21.605Z,9.42
2019-03-28T17:11:29.838Z,9.37
2019-03-28T17:16:39.102Z,11.87
2019-03-28T17:21:47.361Z,10.63
2019-03-28T17:26:55.653Z,13.18
2019-03-28T17:32:03.978Z,13.61
2019-03-28T17:37:12.345Z,10.98
2019-03-28T17:42:20.555Z,12.37
2019-03-28T17:47:28.745Z,10.87
2019-03-28T17:57:45.562Z,16.34
2019-03-28T18:02:53.950Z,16.63
2019-03-28T18:08:02.227Z,11.10
2019-03-28T18:13:18.750Z,11.95
2019-03-28T18:28:26.713Z,12.58
2019-03-28T18:33:34.939Z,9.51
2019-03-28T18:38:43.424Z,12.90
2019-03-28T18:43:51.675Z,14.84
2019-03-28T18:48:59.774Z,12.71
2019-03-28T18:54:08.011Z,12.48
2019-03-28T18:59:16.523Z,14.82
2019-03-28T19:04:25.782Z,12.16
2019-03-28T19:09:34.032Z,15.03
2019-03-28T19:14:45.979Z,16.14
2019-03-28T19:19:50.383Z,15.73
2019-03-28T19:24:58.889Z,15.39
2019-03-28T19:30:07.377Z,14.55
2019-03-28T19:35:15.713Z,17.02
2019-03-28T19:40:24.318Z,15.49
2019-03-28T19:45:35.649Z,16.17
2019-03-28T19:50:37.518Z,15.16
2019-03-28T19:55:45.765Z,15.09
2019-03-28T20:00:54.764Z,15.29
2019-03-28T20:06:02.983Z,15.73
2019-03-28T20:11:11.286Z,15.39
2019-03-28T20:16:19.650Z,15.65
2019-03-28T20:21:27.754Z,15.38
2019-03-28T20:36:54.066Z,15.64
2019-03-28T20:41:52.362Z,18.04
2019-03-28T20:57:15.086Z,18.18
2019-03-28T21:12:41.429Z,14.86
2019-03-28T21:17:49.569Z,16.92
2019-03-28T21:22:50.054Z,15.74
2019-03-28T21:33:00.247Z,16.22
2019-03-28T21:38:00.501Z,16.37
2019-03-28T22:03:39.667Z,16.35
2019-03-28T22:08:44.170Z,18.98
2019-03-28T22:13:52.341Z,16.75
2019-03-28T22:19:00.674Z,14.47
2019-03-28T22:49:50.806Z,14.89
2019-03-28T23:10:23.805Z,14.38
2019-03-28T23:20:40.470Z,15.57
2019-03-28T23:25:48.670Z,15.55
2019-03-28T23:30:56.922Z,13.36
2019-03-28T23:36:05.150Z,14.13
2019-03-28T23:41:13.516Z,19.45
2019-03-28T23:46:21.711Z,19.43
